Accueil
METAR-TAF:

METAR-TAF

Aéroports :

Vladikavkaz, Russie

latitude: 43-12-18N, longitude: 044-36-24E, altitude: 510 m

Observation

Le bulletin a été fait il y a 10 minutes, à 16:30 UTC
Vent 8 kt de est
Température 19°C
Humidité 56%
Pression 1008 hPa
Visibilité 10 km ou plus

METAR: URMO 171630Z 08004MPS 9999 NSC 19/10 Q1008 R09/010070 NOSIG RMK QFE713/0951

Heure: 19:40 (16:40 UTC)

Prévision

Le bulletin a été fait il y a 2 heures et 40 minutes, à 14:00 UTC
Prévision valable du 17 à 15 UTC au 17 à 24 UTC
Vent 6 kt de est/nord-est avec des rafales jusqu'à 16 kt
Visibilité 10 km ou plus
Nuages épars à une hauteur de 5500 ft
Temporairement
du 17 à 15 UTC au 17 à 18 UTC
Vent 10 kt de est avec des rafales jusqu'à 23 kt

TAF: URMO 171400Z 1715/1724 06003G08MPS 9999 SCT055 TEMPO 1715/1718 09005G12MPS

Observations et prévisions météorologiques de plus de 4000 aéroports (messages METAR et TAF).

Les stations disponibles sont représentées par des disques jaunes et rouges sur la carte.

Passer la souris dessus pour voir le nom de la station.

Cliquer dessus pour voir les observations et prévisions météorologiques.

Pour changer de carte: cliquez sur les boutons verts avec une croix noire pour zoomer, sur le bouton vert avec un tiret pour effectuer un zoom arrière, ou sur les flèches vertes pour les cartes adjacentes.


METAR-TAF: